Time;durP1;ratioP1;P1;durP2;ratioP2;P2;SDS_P1;SDS_P2;PMS_P1;PMS_P2;Temp;Humidity;BMP_temperature;BMP_pressure;BME280_temperature;BME280_humidity;BME280_pressure;Samples;Min_cycle;Max_cycle;Signal;HPM_P1;HPM_P2
2023/05/16 00:00:44;;;;;;;10.83;7.70;;;;;;;16.81;100.00;101076.66;2071378;28;20556;-64
2023/05/16 00:01:44;;;;;;;9.97;7.77;;;;;;;16.78;100.00;101074.03;2072144;28;20284;-65
2023/05/16 00:02:46;;;;;;;9.37;7.07;;;;;;;16.73;100.00;101067.03;2072915;28;20435;-64
2023/05/16 00:03:47;;;;;;;10.73;7.60;;;;;;;16.68;100.00;101064.03;2073373;28;20189;-64
2023/05/16 00:04:48;;;;;;;12.00;8.47;;;;;;;16.70;100.00;101070.75;2078522;28;20456;-64
2023/05/16 00:05:49;;;;;;;10.30;7.47;;;;;;;16.69;100.00;101079.59;2072255;28;20744;-65
2023/05/16 00:06:49;;;;;;;10.57;7.00;;;;;;;16.70;100.00;101089.56;2072010;28;20481;-64
2023/05/16 00:07:50;;;;;;;12.13;7.33;;;;;;;16.71;100.00;101111.47;2072837;28;20929;-64
2023/05/16 00:08:50;;;;;;;9.43;7.00;;;;;;;16.73;100.00;101096.25;2072156;28;20201;-64
2023/05/16 00:09:51;;;;;;;12.07;7.90;;;;;;;16.73;100.00;101108.22;2071816;28;20239;-65
2023/05/16 00:10:51;;;;;;;14.93;7.80;;;;;;;16.73;100.00;101108.22;2072580;28;20189;-65
2023/05/16 00:11:52;;;;;;;12.37;8.17;;;;;;;16.07;100.00;101000.63;2072906;28;20716;-64
2023/05/16 00:12:52;;;;;;;14.30;7.57;;;;;;;16.74;100.00;101110.56;2072410;28;20216;-65
2023/05/16 00:13:53;;;;;;;9.33;7.50;;;;;;;16.74;100.00;101102.16;2071082;28;20244;-64
2023/05/16 00:14:54;;;;;;;9.53;7.00;;;;;;;16.53;100.00;101065.88;2070852;28;20166;-64
2023/05/16 00:15:55;;;;;;;15.67;7.53;;;;;;;16.75;100.00;101098.13;2074415;28;20606;-64
2023/05/16 00:16:59;;;;;;;12.93;6.87;;;;;;;16.71;100.00;101091.88;2064412;28;20474;-65
2023/05/16 00:18:00;;;;;;;16.17;7.50;;;;;;;16.77;100.00;101086.47;2067368;28;20191;-65
2023/05/16 00:19:01;;;;;;;11.57;7.00;;;;;;;16.73;100.00;101097.81;2069725;28;20432;-64
2023/05/16 00:20:10;;;;;;;9.20;7.53;;;;;;;16.73;100.00;101096.25;2072803;28;20192;-64
2023/05/16 00:21:11;;;;;;;14.43;8.07;;;;;;;16.68;100.00;101094.81;2067764;28;21031;-64
2023/05/16 00:22:12;;;;;;;12.27;7.70;;;;;;;16.66;100.00;101084.09;2068527;28;20470;-64
2023/05/16 00:23:12;;;;;;;9.77;7.40;;;;;;;16.60;100.00;101082.38;2071662;28;20184;-64
2023/05/16 00:24:12;;;;;;;9.17;8.23;;;;;;;16.65;100.00;101081.78;2072562;28;20541;-65
2023/05/16 00:25:13;;;;;;;11.97;7.57;;;;;;;16.62;100.00;101082.69;2072427;28;20560;-64
2023/05/16 00:26:13;;;;;;;10.07;7.67;;;;;;;16.62;100.00;101082.69;2072234;28;20628;-65
2023/05/16 00:27:14;;;;;;;9.27;7.53;;;;;;;16.63;100.00;101081.44;2078286;28;20200;-64
2023/05/16 00:28:14;;;;;;;12.87;8.10;;;;;;;16.62;100.00;101079.91;2074126;28;20188;-64
2023/05/16 00:29:14;;;;;;;11.00;7.87;;;;;;;16.60;100.00;101074.00;2074979;28;20201;-64
2023/05/16 00:30:15;;;;;;;12.23;8.90;;;;;;;16.21;100.00;101025.22;2068623;28;20632;-64
2023/05/16 00:31:15;;;;;;;12.60;8.47;;;;;;;16.50;100.00;101069.63;2063914;28;20208;-64
2023/05/16 00:32:17;;;;;;;10.07;8.30;;;;;;;16.47;100.00;101064.94;2067278;28;20213;-64
2023/05/16 00:33:18;;;;;;;11.87;8.53;;;;;;;16.46;100.00;101077.38;2072344;28;20181;-64
2023/05/16 00:34:20;;;;;;;13.27;8.97;;;;;;;16.48;100.00;101086.06;2064766;28;20444;-64
2023/05/16 00:35:20;;;;;;;13.63;8.27;;;;;;;15.80;100.00;100971.78;2064699;28;20881;-64
2023/05/16 00:36:21;;;;;;;18.40;8.43;;;;;;;16.42;100.00;101066.31;2064484;28;20437;-64
2023/05/16 00:37:21;;;;;;;12.33;8.60;;;;;;;16.35;100.00;101058.16;2066474;28;20424;-65
2023/05/16 00:38:24;;;;;;;10.63;7.83;;;;;;;16.34;100.00;101078.25;2068282;28;20207;-64
2023/05/16 00:39:24;;;;;;;12.97;8.60;;;;;;;15.59;100.00;100956.63;2072656;28;20178;-64
2023/05/16 00:40:25;;;;;;;13.93;7.97;;;;;;;16.36;100.00;101079.34;2075439;28;20501;-64
2023/05/16 00:41:26;;;;;;;10.60;8.37;;;;;;;15.71;100.00;100980.91;2071181;28;20208;-64
2023/05/16 00:42:26;;;;;;;11.90;8.50;;;;;;;16.33;100.00;101071.84;2072043;28;20185;-65
2023/05/16 00:43:26;;;;;;;9.93;8.57;;;;;;;16.36;100.00;101082.13;2072934;28;20209;-65
2023/05/16 00:44:27;;;;;;;12.03;8.00;;;;;;;16.37;100.00;101075.28;2066003;28;20209;-65
2023/05/16 00:45:27;;;;;;;10.80;7.80;;;;;;;16.40;100.00;101074.38;2066093;28;20221;-64
2023/05/16 00:46:28;;;;;;;12.30;8.17;;;;;;;16.38;100.00;101079.63;2067726;28;20193;-65
2023/05/16 00:47:28;;;;;;;11.00;7.67;;;;;;;16.33;100.00;101077.44;2064070;28;20217;-64
2023/05/16 00:48:29;;;;;;;10.97;7.70;;;;;;;15.83;100.00;100999.56;2065989;28;20185;-64
2023/05/16 00:49:29;;;;;;;11.20;8.30;;;;;;;16.32;100.00;101078.69;2063626;28;20675;-65
2023/05/16 00:50:33;;;;;;;11.23;8.13;;;;;;;15.73;100.00;100983.25;2070175;28;20569;-65
2023/05/16 00:51:34;;;;;;;10.90;7.50;;;;;;;16.37;100.00;101074.50;2064758;28;20178;-64
2023/05/16 00:52:35;;;;;;;13.17;7.90;;;;;;;16.33;100.00;101069.06;2077717;28;20453;-64
2023/05/16 00:53:36;;;;;;;12.33;8.17;;;;;;;16.25;100.00;101061.41;2073568;28;20487;-64
2023/05/16 00:54:37;;;;;;;11.67;8.03;;;;;;;16.10;100.00;101029.66;2072012;28;20184;-64
2023/05/16 00:55:37;;;;;;;12.67;8.10;;;;;;;15.52;100.00;100937.34;2068367;28;20774;-64
2023/05/16 00:56:38;;;;;;;12.00;8.00;;;;;;;16.22;100.00;101046.34;2064441;28;20459;-65
2023/05/16 00:57:39;;;;;;;10.23;7.93;;;;;;;16.12;100.00;101044.75;2065862;28;20193;-64
2023/05/16 00:58:39;;;;;;;10.73;8.10;;;;;;;16.29;100.00;101065.63;2070677;28;20612;-65
2023/05/16 00:59:41;;;;;;;11.97;7.97;;;;;;;16.25;100.00;101056.59;2072262;28;20185;-64
2023/05/16 01:00:41;;;;;;;10.93;7.70;;;;;;;16.23;100.00;101053.47;2064623;28;20190;-64
2023/05/16 01:01:45;;;;;;;9.80;7.87;;;;;;;16.25;100.00;101055.81;2064287;28;20524;-64
2023/05/16 01:02:46;;;;;;;10.93;7.67;;;;;;;16.24;100.00;101055.03;2064265;28;20672;-65
2023/05/16 01:03:47;;;;;;;12.57;7.50;;;;;;;16.24;100.00;101062.66;2070963;28;20453;-64
2023/05/16 01:04:48;;;;;;;12.87;8.10;;;;;;;16.26;100.00;101060.97;2072317;28;20457;-64
2023/05/16 01:05:48;;;;;;;11.17;7.67;;;;;;;16.29;100.00;101064.84;2064493;28;20190;-64
2023/05/16 01:06:49;;;;;;;11.43;7.97;;;;;;;16.28;100.00;101066.06;2065758;28;20178;-64
2023/05/16 01:07:49;;;;;;;10.07;7.10;;;;;;;16.33;100.00;101076.66;2071010;28;20174;-65
2023/05/16 01:08:50;;;;;;;9.20;7.40;;;;;;;16.29;100.00;101071.22;2070526;28;20223;-64
2023/05/16 01:09:50;;;;;;;12.30;7.40;;;;;;;16.28;100.00;101078.03;2064021;28;20187;-64
2023/05/16 01:11:03;;;;;;;11.17;6.93;;;;;;;16.31;100.00;101091.13;2064446;28;20190;-64
2023/05/16 01:12:21;;;;;;;10.90;7.17;;;;;;;16.39;100.00;101098.00;2071022;28;20183;-65
2023/05/16 01:13:32;;;;;;;10.20;6.87;;;;;;;16.37;100.00;101099.69;2067488;28;20458;-64
2023/05/16 01:14:44;;;;;;;8.63;6.63;;;;;;;16.44;100.00;101091.81;2068700;28;21023;-64
2023/05/16 01:15:55;;;;;;;9.13;6.87;;;;;;;16.39;100.00;101084.03;2064570;28;20777;-64
2023/05/16 01:17:16;;;;;;;10.90;6.20;;;;;;;16.34;100.00;101064.25;2067503;28;20420;-64
2023/05/16 01:18:52;;;;;;;11.37;7.17;;;;;;;16.31;100.00;101051.19;2065600;28;20722;-64
2023/05/16 01:20:13;;;;;;;11.80;6.57;;;;;;;16.28;100.00;101043.69;2078142;28;20447;-64
2023/05/16 01:21:43;;;;;;;10.63;6.57;;;;;;;16.28;100.00;101043.69;2078762;28;20466;-64
2023/05/16 01:23:03;;;;;;;14.40;6.60;;;;;;;16.25;100.00;101039.81;2064787;28;20421;-64
2023/05/16 01:24:13;;;;;;;7.70;6.90;;;;;;;16.24;100.00;101040.28;2072442;28;20420;-64
2023/05/16 01:25:26;;;;;;;10.57;7.17;;;;;;;16.21;100.00;101042.00;2079803;28;20434;-64
2023/05/16 01:26:28;;;;;;;8.77;6.47;;;;;;;16.24;100.00;101040.28;2069932;28;20882;-64
2023/05/16 01:27:30;;;;;;;10.00;6.10;;;;;;;15.80;100.00;100980.94;2064990;28;20941;-64
2023/05/16 01:28:31;;;;;;;10.00;6.33;;;;;;;16.20;100.00;101032.03;2073963;28;20419;-64
2023/05/16 01:29:32;;;;;;;8.70;6.00;;;;;;;16.29;100.00;101037.66;2071992;28;20492;-64
2023/05/16 01:30:35;;;;;;;12.43;6.27;;;;;;;16.26;100.00;101040.59;2069843;28;20963;-64
2023/05/16 01:31:36;;;;;;;10.40;6.40;;;;;;;16.28;100.00;101046.50;2072324;28;20197;-65
2023/05/16 01:32:36;;;;;;;12.53;6.00;;;;;;;16.33;100.00;101043.88;2072213;28;20448;-64
2023/05/16 01:33:37;;;;;;;10.07;5.80;;;;;;;16.31;100.00;101045.59;2071702;28;20276;-65
2023/05/16 01:34:37;;;;;;;11.77;6.50;;;;;;;16.31;100.00;101042.78;2071650;28;20189;-64
2023/05/16 01:35:46;;;;;;;12.43;6.30;;;;;;;16.35;100.00;101049.03;2072352;28;20663;-64
2023/05/16 01:37:09;;;;;;;9.40;5.80;;;;;;;16.41;100.00;101052.78;2070197;28;20180;-64
2023/05/16 01:38:12;;;;;;;13.07;6.00;;;;;;;16.42;100.00;101063.53;2067485;28;20503;-64
2023/05/16 01:39:32;;;;;;;11.60;6.23;;;;;;;16.41;100.00;101055.59;2066981;28;20953;-64
2023/05/16 01:40:51;;;;;;;8.63;5.63;;;;;;;16.42;100.00;101056.38;2068556;28;20491;-64
2023/05/16 01:42:11;;;;;;;11.67;6.00;;;;;;;16.43;100.00;101058.69;2064189;28;20931;-64
2023/05/16 01:43:16;;;;;;;9.60;5.83;;;;;;;16.45;100.00;101059.78;2071201;28;20424;-64
2023/05/16 01:44:40;;;;;;;13.07;5.97;;;;;;;16.45;100.00;101051.41;2070844;28;20448;-64
2023/05/16 01:45:50;;;;;;;9.83;5.67;;;;;;;16.44;100.00;101038.66;2067717;28;20427;-64
2023/05/16 01:46:56;;;;;;;8.40;5.63;;;;;;;16.12;100.00;100988.81;2069289;28;20836;-64
2023/05/16 01:48:09;;;;;;;7.53;5.77;;;;;;;15.75;100.00;100950.00;2066165;28;20425;-64
2023/05/16 01:49:16;;;;;;;9.67;5.50;;;;;;;16.45;100.00;101042.25;2070693;28;20956;-65
2023/05/16 01:50:19;;;;;;;8.87;5.70;;;;;;;16.49;100.00;101040.84;2064340;28;20447;-64
2023/05/16 01:51:21;;;;;;;10.37;5.43;;;;;;;16.52;100.00;101043.97;2071722;28;20460;-64
2023/05/16 01:52:29;;;;;;;11.77;5.67;;;;;;;16.53;100.00;101040.69;2073885;28;20453;-64
2023/05/16 01:53:36;;;;;;;16.00;5.90;;;;;;;16.52;100.00;101039.94;2072409;28;20505;-64
2023/05/16 01:54:41;;;;;;;13.60;6.20;;;;;;;16.24;100.00;100984.34;2070829;28;20439;-65
2023/05/16 01:55:48;;;;;;;9.43;5.40;;;;;;;16.62;100.00;101037.16;2071371;28;20464;-64
2023/05/16 01:56:52;;;;;;;9.27;5.80;;;;;;;16.61;100.00;101033.56;2068843;28;21047;-64
2023/05/16 01:57:53;;;;;;;10.13;5.47;;;;;;;16.42;100.00;101006.78;2071816;28;20448;-64
2023/05/16 01:58:54;;;;;;;9.43;5.93;;;;;;;16.64;100.00;101044.63;2071599;28;20440;-64
2023/05/16 01:59:57;;;;;;;12.33;5.40;;;;;;;16.66;100.00;101046.94;2071700;28;20639;-64
2023/05/16 02:01:03;;;;;;;9.90;5.53;;;;;;;16.68;100.00;101050.84;2069621;28;20478;-65
2023/05/16 02:02:03;;;;;;;11.80;5.53;;;;;;;16.30;100.00;100988.09;2065110;28;20833;-65
2023/05/16 02:03:04;;;;;;;11.73;5.70;;;;;;;16.71;100.00;101055.50;2072044;28;20412;-65
2023/05/16 02:04:04;;;;;;;9.23;5.30;;;;;;;16.73;100.00;101059.88;2074658;28;20663;-65
2023/05/16 02:05:05;;;;;;;8.23;5.23;;;;;;;16.72;100.00;101059.09;2072496;28;20238;-65
2023/05/16 02:06:06;;;;;;;7.93;5.37;;;;;;;16.37;100.00;101007.38;2071795;28;20196;-65
2023/05/16 02:07:06;;;;;;;6.43;5.37;;;;;;;16.71;100.00;101057.53;2071373;28;20455;-64
2023/05/16 02:08:07;;;;;;;11.20;5.83;;;;;;;16.52;100.00;101030.00;2079006;28;20713;-64
2023/05/16 02:09:08;;;;;;;8.57;5.03;;;;;;;16.60;100.00;101034.81;2078461;28;20193;-64
2023/05/16 02:10:09;;;;;;;7.87;5.40;;;;;;;16.67;100.00;101046.50;2071726;28;20459;-64
2023/05/16 02:11:10;;;;;;;11.90;5.70;;;;;;;16.77;100.00;101064.06;2071786;28;20177;-65
2023/05/16 02:12:10;;;;;;;8.20;5.23;;;;;;;16.07;100.00;100953.09;2072089;28;20454;-64
2023/05/16 02:13:10;;;;;;;10.87;5.30;;;;;;;16.74;100.00;101064.97;2072094;28;20197;-65
2023/05/16 02:14:11;;;;;;;7.90;4.73;;;;;;;16.70;100.00;101055.97;2078981;28;20271;-65
2023/05/16 02:15:13;;;;;;;8.97;5.03;;;;;;;16.74;100.00;101062.19;2079719;28;20257;-65
2023/05/16 02:16:13;;;;;;;7.80;4.83;;;;;;;16.73;100.00;101062.69;2076089;28;20172;-65
2023/05/16 02:17:14;;;;;;;11.27;5.47;;;;;;;16.70;100.00;101055.97;2077692;28;20448;-65
2023/05/16 02:18:15;;;;;;;12.17;5.73;;;;;;;16.69;100.00;101055.19;2070860;28;20177;-64
2023/05/16 02:19:15;;;;;;;9.87;5.30;;;;;;;16.70;100.00;101053.19;2070666;28;20196;-65
2023/05/16 02:20:15;;;;;;;11.77;5.57;;;;;;;16.43;100.00;101011.94;2073671;28;20189;-65
2023/05/16 02:21:16;;;;;;;11.53;5.30;;;;;;;16.69;100.00;101049.59;2065312;28;20244;-65
2023/05/16 02:22:16;;;;;;;11.87;5.17;;;;;;;16.70;100.00;101056.75;2064781;28;20190;-65
2023/05/16 02:23:17;;;;;;;9.33;4.80;;;;;;;16.70;100.00;101059.53;2065286;28;20191;-65
2023/05/16 02:24:17;;;;;;;10.60;5.03;;;;;;;16.69;100.00;101057.19;2067955;28;20197;-65
2023/05/16 02:25:18;;;;;;;15.13;5.63;;;;;;;16.70;100.00;101058.78;2068793;28;20207;-65
2023/05/16 02:26:18;;;;;;;8.57;5.27;;;;;;;16.70;100.00;101064.38;2073617;28;20187;-65
2023/05/16 02:27:18;;;;;;;11.90;5.73;;;;;;;16.70;100.00;101072.78;2071881;28;20180;-65
2023/05/16 02:28:19;;;;;;;15.83;5.60;;;;;;;16.72;100.00;101089.88;2073413;28;20215;-65
2023/05/16 02:29:20;;;;;;;10.87;5.10;;;;;;;16.70;100.00;101098.72;2073126;28;20188;-65
2023/05/16 02:30:20;;;;;;;10.37;5.20;;;;;;;16.65;100.00;101088.13;2066341;28;20199;-64
2023/05/16 02:31:31;;;;;;;11.17;5.37;;;;;;;16.74;100.00;101104.97;2065595;28;20197;-64
2023/05/16 02:32:32;;;;;;;11.07;5.30;;;;;;;16.70;100.00;101098.72;2071366;28;20276;-65
2023/05/16 02:33:33;;;;;;;11.43;5.17;;;;;;;16.74;100.00;101102.16;2073115;28;20460;-65
2023/05/16 02:34:33;;;;;;;11.67;5.10;;;;;;;16.75;100.00;101106.50;2065458;28;20440;-64
2023/05/16 02:35:34;;;;;;;10.00;5.23;;;;;;;16.36;100.00;101042.19;2065727;28;20704;-64
2023/05/16 02:36:35;;;;;;;11.57;5.40;;;;;;;16.59;100.00;101092.78;2067259;28;20184;-64
2023/05/16 02:37:35;;;;;;;8.43;5.03;;;;;;;16.71;100.00;101111.47;2072321;28;20268;-65
2023/05/16 02:38:36;;;;;;;11.40;4.70;;;;;;;16.69;100.00;101099.97;2072857;28;20186;-65
2023/05/16 02:39:36;;;;;;;10.73;4.80;;;;;;;16.70;100.00;101092.38;2065270;28;20284;-65
2023/05/16 02:40:37;;;;;;;7.97;5.13;;;;;;;16.68;100.00;101092.81;2078483;28;20221;-64
2023/05/16 02:41:37;;;;;;;6.87;4.90;;;;;;;16.68;100.00;101078.03;2074869;28;20189;-64
2023/05/16 02:42:38;;;;;;;8.60;5.13;;;;;;;16.03;100.00;100991.59;2073604;28;20279;-65
2023/05/16 02:43:38;;;;;;;10.07;5.27;;;;;;;16.66;100.00;101074.94;2073007;28;20505;-64
2023/05/16 02:44:38;;;;;;;11.93;5.60;;;;;;;16.58;100.00;101073.66;2073343;28;20832;-64
2023/05/16 02:45:39;;;;;;;7.50;5.40;;;;;;;16.32;100.00;101019.97;2073108;28;20184;-64
2023/05/16 02:46:40;;;;;;;9.57;5.37;;;;;;;16.62;100.00;101062.34;2073591;28;20206;-65
2023/05/16 02:47:40;;;;;;;9.97;5.33;;;;;;;16.58;100.00;101062.47;2073091;28;20276;-64
2023/05/16 02:48:40;;;;;;;13.63;5.43;;;;;;;16.57;100.00;101069.31;2072555;28;20186;-64
2023/05/16 02:49:41;;;;;;;13.00;5.67;;;;;;;16.56;100.00;101067.75;2073109;28;20562;-64
2023/05/16 02:50:41;;;;;;;17.23;6.33;;;;;;;16.17;100.00;101013.38;2068770;28;20197;-64
2023/05/16 02:51:42;;;;;;;18.73;6.13;;;;;;;16.54;100.00;101064.66;2072966;28;20578;-65
2023/05/16 02:52:42;;;;;;;17.70;6.47;;;;;;;16.44;100.00;101047.06;2076749;28;20230;-64
2023/05/16 02:53:43;;;;;;;17.07;5.10;;;;;;;16.42;100.00;101050.78;2066504;28;20177;-64
2023/05/16 02:54:44;;;;;;;15.37;4.93;;;;;;;16.36;100.00;101047.78;2072726;28;20173;-64
2023/05/16 02:55:44;;;;;;;7.27;4.60;;;;;;;16.24;100.00;101041.06;2073353;28;20192;-64
2023/05/16 02:56:45;;;;;;;7.60;3.80;;;;;;;16.20;100.00;101039.66;2067069;28;20193;-65
2023/05/16 02:57:45;;;;;;;11.80;4.77;;;;;;;16.17;100.00;101038.56;2064696;28;20219;-64
2023/05/16 02:58:47;;;;;;;9.50;4.43;;;;;;;16.23;100.00;101045.09;2064971;28;20205;-65
2023/05/16 02:59:47;;;;;;;9.13;4.70;;;;;;;16.25;100.00;101047.44;2072573;28;20189;-65
2023/05/16 03:00:48;;;;;;;11.00;4.83;;;;;;;16.27;100.00;101050.53;2071483;28;20407;-65
2023/05/16 03:01:48;;;;;;;10.70;5.47;;;;;;;16.29;100.00;101048.84;2065990;28;20190;-65
2023/05/16 03:02:49;;;;;;;10.10;5.10;;;;;;;16.32;100.00;101058.31;2073733;28;20185;-65
2023/05/16 03:03:49;;;;;;;9.67;4.70;;;;;;;16.06;100.00;101010.25;2069255;28;20188;-65
2023/05/16 03:04:50;;;;;;;10.20;5.00;;;;;;;16.36;100.00;101059.75;2073493;28;20308;-65
2023/05/16 03:05:50;;;;;;;8.50;5.07;;;;;;;15.88;100.00;100987.78;2072893;28;20193;-64
2023/05/16 03:06:51;;;;;;;9.30;4.97;;;;;;;16.38;100.00;101056.47;2073017;28;20193;-64
2023/05/16 03:07:51;;;;;;;8.77;4.90;;;;;;;16.38;100.00;101057.25;2079951;28;20188;-65
2023/05/16 03:08:51;;;;;;;11.40;4.90;;;;;;;16.39;100.00;101058.09;2080169;28;20732;-65
2023/05/16 03:09:52;;;;;;;12.53;5.03;;;;;;;16.37;100.00;101064.09;2072191;28;20181;-64
2023/05/16 03:10:52;;;;;;;11.33;5.37;;;;;;;16.38;100.00;101056.47;2065478;28;20263;-65
2023/05/16 03:11:53;;;;;;;7.80;4.77;;;;;;;16.38;100.00;101053.69;2065336;28;20204;-64
2023/05/16 03:12:53;;;;;;;8.60;5.10;;;;;;;16.40;100.00;101054.81;2071291;28;20670;-65
2023/05/16 03:13:54;;;;;;;11.13;4.97;;;;;;;16.40;100.00;101054.03;2073267;28;20642;-65
2023/05/16 03:14:54;;;;;;;8.17;5.07;;;;;;;16.40;100.00;101056.84;2073114;28;20617;-65
2023/05/16 03:15:55;;;;;;;8.60;4.70;;;;;;;15.94;100.00;100991.53;2073509;28;20193;-65
2023/05/16 03:16:55;;;;;;;9.17;4.53;;;;;;;16.39;100.00;101058.84;2078049;28;20180;-65
2023/05/16 03:17:56;;;;;;;7.30;4.73;;;;;;;16.39;100.00;101066.47;2072808;28;20168;-65
2023/05/16 03:18:56;;;;;;;12.00;5.07;;;;;;;16.18;100.00;101034.50;2072965;28;20185;-65
2023/05/16 03:19:57;;;;;;;8.50;5.20;;;;;;;16.42;100.00;101071.91;2064880;28;20186;-65
2023/05/16 03:20:57;;;;;;;7.20;4.70;;;;;;;16.43;100.00;101079.06;2065312;28;20193;-65
2023/05/16 03:21:58;;;;;;;8.67;4.33;;;;;;;16.43;100.00;101076.28;2065636;28;20198;-64
2023/05/16 03:22:58;;;;;;;11.70;5.13;;;;;;;16.42;100.00;101074.72;2065192;28;20193;-65
2023/05/16 03:23:58;;;;;;;10.80;5.00;;;;;;;16.42;100.00;101075.97;2070527;28;20204;-65
2023/05/16 03:24:59;;;;;;;7.70;4.73;;;;;;;16.41;100.00;101077.97;2073164;28;20202;-65
2023/05/16 03:25:59;;;;;;;7.80;4.40;;;;;;;16.41;100.00;101080.78;2070982;28;20189;-65
2023/05/16 03:27:00;;;;;;;9.17;4.57;;;;;;;16.06;100.00;101026.22;2071699;28;20629;-65
2023/05/16 03:28:01;;;;;;;7.00;4.50;;;;;;;16.42;100.00;101087.91;2075038;28;20174;-65
2023/05/16 03:29:02;;;;;;;9.67;4.50;;;;;;;16.42;100.00;101090.72;2066989;28;20722;-64
2023/05/16 03:30:02;;;;;;;7.93;4.53;;;;;;;16.22;100.00;101065.91;2073393;28;20953;-65
2023/05/16 03:31:02;;;;;;;10.23;4.37;;;;;;;16.38;100.00;101092.84;2072683;28;20254;-65
2023/05/16 03:32:03;;;;;;;7.67;4.40;;;;;;;16.37;100.00;101089.28;2069655;28;20187;-64
2023/05/16 03:33:04;;;;;;;6.90;4.70;;;;;;;15.82;100.00;101002.81;2067676;28;20186;-64
2023/05/16 03:34:04;;;;;;;8.17;4.70;;;;;;;16.34;100.00;101084.59;2072949;28;20420;-65
2023/05/16 03:35:05;;;;;;;9.37;4.60;;;;;;;16.33;100.00;101091.44;2072444;28;20185;-65
2023/05/16 03:36:06;;;;;;;9.00;4.83;;;;;;;16.35;100.00;101096.56;2073078;28;20652;-65
2023/05/16 03:37:07;;;;;;;8.10;4.97;;;;;;;16.35;100.00;101100.13;2072341;28;20879;-65
2023/05/16 03:38:07;;;;;;;6.23;4.53;;;;;;;16.35;100.00;101100.13;2072735;28;20189;-65
2023/05/16 03:39:08;;;;;;;9.60;5.00;;;;;;;16.34;100.00;101104.16;2071747;28;20679;-65
2023/05/16 03:40:10;;;;;;;7.47;5.07;;;;;;;15.94;100.00;101035.50;2073747;28;20190;-65
2023/05/16 03:41:10;;;;;;;7.93;5.10;;;;;;;16.11;100.00;101090.72;2074780;28;20663;-65
2023/05/16 03:42:11;;;;;;;7.87;5.50;;;;;;;16.26;100.00;101091.72;2065075;28;20456;-65
2023/05/16 03:43:12;;;;;;;7.47;5.50;;;;;;;16.35;100.00;101100.13;2065889;28;20433;-65
2023/05/16 03:44:12;;;;;;;7.93;5.73;;;;;;;16.23;100.00;101112.22;2072932;28;20191;-65
2023/05/16 03:45:13;;;;;;;8.20;6.10;;;;;;;15.69;100.00;101002.94;2073239;28;20251;-64
2023/05/16 03:46:13;;;;;;;6.93;6.03;;;;;;;16.33;100.00;101102.63;2066138;28;20678;-64
2023/05/16 03:47:13;;;;;;;11.17;6.07;;;;;;;16.35;100.00;101104.97;2063809;28;20201;-64
2023/05/16 03:48:14;;;;;;;8.30;6.53;;;;;;;16.36;100.00;101104.50;2068547;28;20363;-65
2023/05/16 03:49:14;;;;;;;9.07;5.87;;;;;;;16.33;100.00;101110.22;2072034;28;20248;-64
2023/05/16 03:50:15;;;;;;;14.63;6.90;;;;;;;15.38;100.00;100963.03;2070636;28;20210;-65
2023/05/16 03:51:16;;;;;;;13.30;6.73;;;;;;;15.80;100.00;101024.88;2065134;28;20496;-64
2023/05/16 03:52:16;;;;;;;9.70;6.43;;;;;;;16.26;100.00;101102.91;2071566;28;20196;-64
2023/05/16 03:53:17;;;;;;;7.13;6.23;;;;;;;16.31;100.00;101109.91;2072896;28;20560;-64
2023/05/16 03:54:17;;;;;;;9.60;6.73;;;;;;;16.31;100.00;101107.91;2072654;28;20194;-64
2023/05/16 03:55:17;;;;;;;11.30;6.83;;;;;;;16.32;100.00;101109.47;2067474;28;20276;-71
2023/05/16 03:56:18;;;;;;;8.50;6.97;;;;;;;16.32;100.00;101106.66;2073493;28;20193;-66
2023/05/16 03:57:18;;;;;;;14.50;7.00;;;;;;;16.26;100.00;101090.94;2067735;28;20193;-66
2023/05/16 03:58:19;;;;;;;10.03;6.90;;;;;;;16.30;100.00;101103.53;2064106;28;20185;-64
2023/05/16 03:59:19;;;;;;;10.07;6.30;;;;;;;16.32;100.00;101109.47;2064565;28;20197;-63
2023/05/16 04:00:20;;;;;;;6.60;5.50;;;;;;;16.31;100.00;101116.28;2064741;28;20181;-66
2023/05/16 04:01:21;;;;;;;8.17;6.50;;;;;;;16.30;100.00;101117.50;2065296;28;20657;-62
2023/05/16 04:02:21;;;;;;;7.87;6.53;;;;;;;16.31;100.00;101121.88;2065388;28;20190;-66
2023/05/16 04:03:27;;;;;;;9.33;6.83;;;;;;;16.29;100.00;101126.38;2065006;28;20558;-63
2023/05/16 04:04:27;;;;;;;11.77;6.80;;;;;;;16.27;100.00;101123.25;2072513;28;20611;-66
2023/05/16 04:05:28;;;;;;;10.13;6.93;;;;;;;16.29;100.00;101127.16;2073152;28;20832;-63
2023/05/16 04:06:28;;;;;;;8.07;6.50;;;;;;;16.17;100.00;101104.88;2068683;28;20197;-65
2023/05/16 04:07:29;;;;;;;11.37;6.80;;;;;;;16.29;100.00;101123.59;2065981;28;20237;-65
2023/05/16 04:08:30;;;;;;;10.57;6.83;;;;;;;16.27;100.00;101126.03;2070952;28;20210;-61
2023/05/16 04:09:31;;;;;;;9.77;6.73;;;;;;;15.52;100.00;101017.59;2066921;28;20265;-61
2023/05/16 04:10:32;;;;;;;10.17;6.87;;;;;;;16.21;100.00;101114.69;2074508;28;20437;-61
2023/05/16 04:11:33;;;;;;;9.43;7.67;;;;;;;16.18;100.00;101109.25;2065721;28;20532;-61
2023/05/16 04:12:33;;;;;;;10.90;7.07;;;;;;;16.18;100.00;101112.81;2064792;28;20217;-61
2023/05/16 04:13:33;;;;;;;10.43;7.53;;;;;;;15.32;100.00;100980.81;2064592;28;20283;-64
2023/05/16 04:14:34;;;;;;;7.80;7.00;;;;;;;16.20;100.00;101118.72;2067662;28;20557;-63
2023/05/16 04:15:34;;;;;;;9.47;7.00;;;;;;;15.98;100.00;101078.84;2069734;28;20252;-65
2023/05/16 04:16:35;;;;;;;8.07;6.47;;;;;;;16.25;100.00;101122.94;2074532;28;20185;-65
2023/05/16 04:17:35;;;;;;;9.90;7.20;;;;;;;16.25;100.00;101118.09;2071673;28;20174;-65
2023/05/16 04:18:36;;;;;;;11.33;7.03;;;;;;;16.25;100.00;101118.09;2062628;28;20350;-64
2023/05/16 04:19:36;;;;;;;11.27;6.93;;;;;;;16.27;100.00;101124.03;2070425;28;20196;-64
2023/05/16 04:20:36;;;;;;;7.17;6.47;;;;;;;16.27;100.00;101120.44;2072126;28;20640;-62
2023/05/16 04:21:37;;;;;;;11.90;7.50;;;;;;;16.25;100.00;101120.16;2072766;28;20316;-61
2023/05/16 04:22:37;;;;;;;11.13;7.60;;;;;;;16.24;100.00;101115.78;2072603;28;20585;-63
2023/05/16 04:23:38;;;;;;;12.20;7.50;;;;;;;16.24;100.00;101110.19;2072400;28;20309;-65
2023/05/16 04:24:38;;;;;;;11.73;7.50;;;;;;;16.12;100.00;101095.06;2073493;28;20248;-65
2023/05/16 04:25:40;;;;;;;9.17;7.63;;;;;;;15.48;100.00;100997.38;2072472;28;20571;-67
2023/05/16 04:26:40;;;;;;;13.47;7.67;;;;;;;16.24;100.00;101110.97;2072963;28;20185;-66
2023/05/16 04:27:41;;;;;;;13.00;7.87;;;;;;;16.17;100.00;101105.66;2065691;28;20455;-67
2023/05/16 04:28:41;;;;;;;12.33;8.30;;;;;;;16.14;100.00;101094.63;2069944;28;20197;-67
2023/05/16 04:29:42;;;;;;;12.77;8.00;;;;;;;15.71;100.00;101039.56;2069867;28;20760;-66
2023/05/16 04:30:42;;;;;;;10.67;8.17;;;;;;;16.13;100.00;101098.66;2063910;28;20724;-68
2023/05/16 04:31:42;;;;;;;9.03;7.50;;;;;;;16.15;100.00;101098.97;2064439;28;20178;-64
2023/05/16 04:32:43;;;;;;;10.53;8.17;;;;;;;16.15;100.00;101108.16;2071383;28;20666;-68
2023/05/16 04:33:43;;;;;;;11.43;7.93;;;;;;;16.12;100.00;101102.66;2071845;28;20205;-67
2023/05/16 04:34:45;;;;;;;12.03;7.40;;;;;;;16.25;100.00;101120.16;2070414;28;20332;-67
2023/05/16 04:35:45;;;;;;;9.23;7.97;;;;;;;16.28;100.00;101117.19;2071897;28;20644;-65
2023/05/16 04:36:46;;;;;;;10.73;9.17;;;;;;;16.30;100.00;101113.94;2071801;28;20861;-68
2023/05/16 04:37:46;;;;;;;11.40;9.03;;;;;;;16.26;100.00;101099.31;2070678;28;20281;-66
2023/05/16 04:38:47;;;;;;;10.80;8.87;;;;;;;16.19;100.00;101097.56;2071270;28;20178;-66
2023/05/16 04:39:47;;;;;;;11.47;9.03;;;;;;;16.21;100.00;101103.50;2071665;28;20639;-65
2023/05/16 04:40:49;;;;;;;11.37;7.27;;;;;;;16.25;100.00;101109.72;2079712;28;20697;-66
2023/05/16 04:41:50;;;;;;;9.03;7.20;;;;;;;16.18;100.00;101096.03;2070439;28;20235;-65
2023/05/16 04:42:52;;;;;;;9.23;7.73;;;;;;;16.26;100.00;101111.31;2072529;28;20946;-65
2023/05/16 04:43:53;;;;;;;11.27;7.57;;;;;;;16.26;100.00;101100.13;2072421;28;20208;-64